createdAt,value
2022-09-05T00:01:44.136Z,19.87
2022-09-05T00:04:25.461Z,19.90
2022-09-05T00:07:05.633Z,19.81
2022-09-05T00:09:57.432Z,19.83
2022-09-05T00:12:28.967Z,19.58
2022-09-05T00:15:19.272Z,19.67
2022-09-05T00:21:08.196Z,19.71
2022-09-05T00:24:32.277Z,19.70
2022-09-05T00:24:37.273Z,19.75
2022-09-05T00:27:12.098Z,19.71
2022-09-05T00:31:07.125Z,19.72
2022-09-05T00:33:19.432Z,19.70
2022-09-05T00:36:06.441Z,19.64
2022-09-05T00:38:40.152Z,19.62
2022-09-05T00:41:13.875Z,19.64
2022-09-05T00:43:46.127Z,19.62
2022-09-05T00:46:19.181Z,19.61
2022-09-05T00:48:54.412Z,19.73
2022-09-05T00:51:34.939Z,19.64
2022-09-05T00:54:26.324Z,19.66
2022-09-05T00:57:33.253Z,19.57
2022-09-05T01:00:17.276Z,19.28
2022-09-05T01:03:18.949Z,19.58
2022-09-05T01:06:17.427Z,19.51
2022-09-05T01:09:08.535Z,19.54
2022-09-05T01:11:49.384Z,19.42
2022-09-05T01:14:38.396Z,19.54
2022-09-05T01:17:29.052Z,19.55
2022-09-05T01:20:25.797Z,19.52
2022-09-05T01:23:19.719Z,19.53
2022-09-05T01:25:59.274Z,19.38
2022-09-05T01:29:16.478Z,19.41
2022-09-05T01:31:33.627Z,19.40
2022-09-05T01:34:11.023Z,19.37
2022-09-05T01:36:53.947Z,19.46
2022-09-05T01:40:10.696Z,19.42
2022-09-05T01:42:37.007Z,19.36
2022-09-05T01:45:17.364Z,19.36
2022-09-05T01:47:53.267Z,19.38
2022-09-05T01:50:40.680Z,19.29
2022-09-05T01:53:25.820Z,19.12
2022-09-05T01:56:31.452Z,19.25
2022-09-05T01:59:23.811Z,19.30
2022-09-05T02:02:20.113Z,19.28
2022-09-05T02:05:12.811Z,19.29
2022-09-05T02:08:00.724Z,19.21
2022-09-05T02:10:54.893Z,19.33
2022-09-05T02:13:30.279Z,19.22
2022-09-05T02:16:06.066Z,19.09
2022-09-05T02:18:52.470Z,19.13
2022-09-05T02:21:31.632Z,19.04
2022-09-05T02:24:10.456Z,19.17
2022-09-05T02:26:49.083Z,19.06
2022-09-05T02:29:30.045Z,18.88
2022-09-05T02:32:12.917Z,19.01
2022-09-05T02:34:53.560Z,19.01
2022-09-05T02:39:02.515Z,19.04
2022-09-05T02:45:01.323Z,18.84
2022-09-05T02:45:19.648Z,18.70
2022-09-05T02:46:28.481Z,18.79
2022-09-05T02:49:07.739Z,18.88
2022-09-05T02:57:27.665Z,18.89
2022-09-05T02:57:42.314Z,18.78
2022-09-05T02:58:07.658Z,18.85
2022-09-05T03:00:43.510Z,18.74
2022-09-05T03:03:24.626Z,18.70
2022-09-05T03:06:01.730Z,18.65
2022-09-05T03:09:16.563Z,18.64
2022-09-05T03:12:29.395Z,18.82
2022-09-05T03:15:46.907Z,18.65
2022-09-05T03:18:48.731Z,18.42
2022-09-05T03:22:09.387Z,18.52
2022-09-05T03:25:21.495Z,18.42
2022-09-05T03:28:32.620Z,18.20
2022-09-05T03:31:44.166Z,18.34
2022-09-05T03:34:41.516Z,18.45
2022-09-05T03:37:42.544Z,18.60
2022-09-05T03:40:36.677Z,18.31
2022-09-05T03:43:38.988Z,18.47
2022-09-05T03:46:29.250Z,18.51
2022-09-05T03:50:18.725Z,18.41
2022-09-05T03:57:11.772Z,18.27
2022-09-05T03:57:24.170Z,18.31
2022-09-05T03:58:57.660Z,18.42
2022-09-05T04:02:59.987Z,18.31
2022-09-05T04:08:14.026Z,18.41
2022-09-05T04:08:19.557Z,18.32
2022-09-05T04:10:33.827Z,18.43
2022-09-05T04:13:09.768Z,18.43
2022-09-05T04:15:44.757Z,18.37
2022-09-05T04:18:33.247Z,18.44
2022-09-05T04:21:09.759Z,18.40
2022-09-05T04:23:48.739Z,18.31
2022-09-05T04:26:36.474Z,18.14
2022-09-05T04:29:18.385Z,18.07
2022-09-05T04:32:06.535Z,18.13
2022-09-05T04:35:04.048Z,18.17
2022-09-05T04:37:48.711Z,18.10
2022-09-05T04:40:48.009Z,18.10
2022-09-05T04:43:29.987Z,18.01
2022-09-05T04:46:10.537Z,18.00
2022-09-05T04:48:46.889Z,17.89
2022-09-05T04:52:00.380Z,18.01
2022-09-05T04:54:36.433Z,18.07
2022-09-05T04:57:26.171Z,18.05
2022-09-05T05:05:58.697Z,18.20
2022-09-05T05:06:17.548Z,18.29
2022-09-05T05:06:31.699Z,18.30
2022-09-05T05:08:56.910Z,18.38
2022-09-05T05:16:29.910Z,18.54
2022-09-05T05:18:12.504Z,18.32
2022-09-05T05:18:14.521Z,18.55
2022-09-05T05:20:39.854Z,18.74
2022-09-05T05:23:14.629Z,18.59
2022-09-05T05:25:50.674Z,18.76
2022-09-05T05:28:29.150Z,19.02
2022-09-05T05:31:11.901Z,19.18
2022-09-05T05:33:48.485Z,19.24
2022-09-05T05:36:23.955Z,19.17
2022-09-05T05:39:00.837Z,19.28
2022-09-05T05:41:38.484Z,19.43
2022-09-05T05:44:20.363Z,19.41
2022-09-05T05:47:00.375Z,19.52
2022-09-05T05:49:46.446Z,19.59
2022-09-05T05:52:58.679Z,19.72
2022-09-05T05:55:52.929Z,19.72
2022-09-05T05:58:59.959Z,19.66
2022-09-05T06:02:05.924Z,19.78
2022-09-05T06:05:09.821Z,19.83
2022-09-05T06:10:44.378Z,19.84
2022-09-05T06:14:50.394Z,19.86
2022-09-05T06:15:01.463Z,19.92
2022-09-05T06:17:47.817Z,19.99
2022-09-05T06:22:08.301Z,20.07
2022-09-05T06:24:27.500Z,20.21
2022-09-05T06:27:27.819Z,20.26
2022-09-05T06:30:03.210Z,20.21
2022-09-05T06:32:56.919Z,20.23
2022-09-05T06:35:46.545Z,20.21
2022-09-05T06:38:44.622Z,20.21
2022-09-05T06:41:31.679Z,20.38
2022-09-05T06:44:35.123Z,20.43
2022-09-05T06:47:23.881Z,20.47
2022-09-05T06:50:23.708Z,20.57
2022-09-05T06:53:36.752Z,20.46
2022-09-05T06:56:28.029Z,20.66
2022-09-05T06:59:39.968Z,20.77
2022-09-05T07:02:33.040Z,20.74
2022-09-05T07:05:39.818Z,20.79
2022-09-05T07:08:36.310Z,20.80
2022-09-05T07:11:16.241Z,20.92
2022-09-05T07:13:57.850Z,20.90
2022-09-05T07:16:41.945Z,20.91
2022-09-05T07:19:27.176Z,20.93
2022-09-05T07:22:46.290Z,21.04
2022-09-05T07:25:21.034Z,21.17
2022-09-05T07:28:26.903Z,21.12
2022-09-05T07:30:50.589Z,21.21
2022-09-05T07:33:25.497Z,21.12
2022-09-05T07:35:58.602Z,21.53
2022-09-05T07:38:38.226Z,21.77
2022-09-05T07:41:24.440Z,21.98
2022-09-05T07:43:56.243Z,22.04
2022-09-05T07:46:30.107Z,22.07
2022-09-05T07:49:06.207Z,22.06
2022-09-05T07:56:55.698Z,22.32
2022-09-05T07:57:08.252Z,22.35
2022-09-05T07:57:31.305Z,22.43
2022-09-05T08:00:26.585Z,22.25
2022-09-05T08:03:02.109Z,22.35
2022-09-05T08:05:42.374Z,22.23
2022-09-05T08:08:15.752Z,22.12
2022-09-05T08:11:22.691Z,22.41
2022-09-05T08:14:25.452Z,22.49
2022-09-05T08:16:49.704Z,22.39
2022-09-05T08:19:47.058Z,22.62
2022-09-05T08:22:23.210Z,22.76
2022-09-05T08:25:01.132Z,22.84
2022-09-05T08:27:38.880Z,22.88
2022-09-05T08:30:26.501Z,22.99
2022-09-05T08:33:11.041Z,22.81
2022-09-05T08:35:46.541Z,22.77
2022-09-05T08:38:18.821Z,22.90
2022-09-05T08:40:56.257Z,22.77
2022-09-05T08:46:39.657Z,22.81
2022-09-05T08:46:45.760Z,22.81
2022-09-05T08:49:46.857Z,23.03
2022-09-05T08:52:29.815Z,23.09
2022-09-05T08:55:13.783Z,23.11
2022-09-05T08:58:04.084Z,23.06
2022-09-05T09:00:43.135Z,23.12
2022-09-05T09:03:29.543Z,23.21
2022-09-05T09:06:26.905Z,23.29
2022-09-05T09:09:11.213Z,23.22
2022-09-05T09:11:53.506Z,23.30
2022-09-05T09:14:36.940Z,23.06
2022-09-05T09:17:26.929Z,23.24
2022-09-05T09:20:14.436Z,23.36
2022-09-05T09:22:56.719Z,23.36
2022-09-05T09:25:33.984Z,23.31
2022-09-05T09:28:47.932Z,23.23
2022-09-05T09:31:33.228Z,23.19
2022-09-05T09:34:32.918Z,23.38
2022-09-05T09:37:54.401Z,23.25
2022-09-05T09:41:02.219Z,23.29
2022-09-05T09:43:55.268Z,23.49
2022-09-05T09:46:39.114Z,23.65
2022-09-05T09:49:27.700Z,23.51
2022-09-05T09:52:36.468Z,23.76
2022-09-05T09:55:52.191Z,23.87
2022-09-05T09:58:59.747Z,23.93
2022-09-05T10:01:40.209Z,23.90
2022-09-05T10:10:36.517Z,23.79
2022-09-05T10:10:52.198Z,23.99
2022-09-05T10:11:51.967Z,23.88
2022-09-05T10:14:36.751Z,23.74
2022-09-05T10:17:32.256Z,23.71
2022-09-05T10:20:18.147Z,23.57
2022-09-05T10:23:04.226Z,23.89
2022-09-05T10:26:08.291Z,24.01
2022-09-05T10:28:42.900Z,24.03
2022-09-05T10:32:58.085Z,24.11
2022-09-05T10:35:07.573Z,24.15
2022-09-05T10:37:13.512Z,24.20
2022-09-05T10:39:48.003Z,24.27
2022-09-05T10:42:25.366Z,24.38
2022-09-05T10:44:57.161Z,24.48
2022-09-05T10:47:38.229Z,24.39
2022-09-05T10:50:27.338Z,24.23
2022-09-05T10:53:25.584Z,24.15
2022-09-05T10:56:07.852Z,24.11
2022-09-05T10:59:33.160Z,24.10
2022-09-05T11:02:29.474Z,24.41
2022-09-05T11:04:50.540Z,24.41
2022-09-05T11:07:37.087Z,24.49
2022-09-05T11:10:14.363Z,24.62
2022-09-05T11:13:08.580Z,24.36
2022-09-05T11:16:03.696Z,24.50
2022-09-05T11:18:55.710Z,24.76
2022-09-05T11:21:33.321Z,24.65
2022-09-05T11:24:12.859Z,24.57
2022-09-05T11:26:51.425Z,24.79
2022-09-05T11:29:42.816Z,24.83
2022-09-05T11:35:45.349Z,24.92
2022-09-05T11:39:58.552Z,24.91
2022-09-05T11:39:59.729Z,25.00
2022-09-05T11:42:09.354Z,25.00
2022-09-05T11:45:08.780Z,25.02
2022-09-05T11:48:23.726Z,25.14
2022-09-05T11:51:41.467Z,24.99
2022-09-05T11:54:50.346Z,24.94
2022-09-05T11:57:46.840Z,24.91
2022-09-05T12:00:33.868Z,24.92
2022-09-05T12:03:59.535Z,24.94
2022-09-05T12:07:27.095Z,25.18
2022-09-05T12:10:06.015Z,25.16
2022-09-05T12:12:43.385Z,24.96
2022-09-05T12:15:34.397Z,25.10
2022-09-05T12:18:19.478Z,25.02
2022-09-05T12:21:03.516Z,25.04
2022-09-05T12:24:28.509Z,25.13
2022-09-05T12:27:41.541Z,25.10
2022-09-05T12:29:48.761Z,25.10
2022-09-05T12:34:25.520Z,24.98
2022-09-05T12:36:12.660Z,24.94
2022-09-05T12:40:57.439Z,25.03
2022-09-05T12:41:42.814Z,25.21
2022-09-05T12:44:44.292Z,25.41
2022-09-05T12:47:21.277Z,25.40
2022-09-05T12:50:14.566Z,25.20
2022-09-05T12:52:47.416Z,25.16
2022-09-05T12:55:26.424Z,25.23
2022-09-05T13:02:57.756Z,25.27
2022-09-05T13:03:12.853Z,25.23
2022-09-05T13:04:15.904Z,25.24
2022-09-05T13:06:43.623Z,25.24
2022-09-05T13:09:22.385Z,25.22
2022-09-05T13:14:50.447Z,25.28
2022-09-05T13:15:11.479Z,25.29
2022-09-05T13:17:54.016Z,25.39
2022-09-05T13:20:34.931Z,25.36
2022-09-05T13:23:18.288Z,25.58
2022-09-05T13:25:58.039Z,25.69
2022-09-05T13:28:38.493Z,25.62
2022-09-05T13:37:59.656Z,25.63
2022-09-05T13:38:00.575Z,25.43
2022-09-05T13:38:04.721Z,25.55
2022-09-05T13:40:05.386Z,25.21
2022-09-05T13:42:40.787Z,25.19
2022-09-05T13:45:18.565Z,25.08
2022-09-05T13:48:02.995Z,25.14
2022-09-05T13:50:38.378Z,25.00
2022-09-05T13:53:16.880Z,25.11
2022-09-05T13:55:57.533Z,25.19
2022-09-05T13:58:39.917Z,25.21
2022-09-05T14:01:30.138Z,25.17
2022-09-05T14:08:17.906Z,25.14
2022-09-05T14:11:12.242Z,25.12
2022-09-05T14:14:04.826Z,25.05
2022-09-05T14:16:53.585Z,24.91
2022-09-05T14:19:43.351Z,24.89
2022-09-05T14:22:36.108Z,24.78
2022-09-05T14:25:12.016Z,24.78
2022-09-05T14:27:46.115Z,24.80
2022-09-05T14:36:08.049Z,24.79
2022-09-05T14:37:42.860Z,24.92
2022-09-05T14:37:52.441Z,24.85
2022-09-05T14:40:19.187Z,25.03
2022-09-05T14:43:26.770Z,25.05
2022-09-05T14:46:22.393Z,25.06
2022-09-05T14:49:12.452Z,25.01
2022-09-05T14:51:46.849Z,24.99
2022-09-05T15:00:27.665Z,24.91
2022-09-05T15:02:42.336Z,24.90
2022-09-05T15:03:06.352Z,24.81
2022-09-05T15:05:41.839Z,24.84
2022-09-05T15:11:24.520Z,24.76
2022-09-05T15:12:20.002Z,24.69
2022-09-05T15:14:08.609Z,24.52
2022-09-05T15:16:45.772Z,24.58
2022-09-05T15:20:05.228Z,24.54
2022-09-05T15:22:39.700Z,24.50
2022-09-05T15:25:18.124Z,24.48
2022-09-05T15:27:49.548Z,24.45
2022-09-05T15:30:27.535Z,24.40
2022-09-05T15:33:15.253Z,24.38
2022-09-05T15:35:46.512Z,24.34
2022-09-05T15:38:29.282Z,24.25
2022-09-05T15:41:20.656Z,24.04
2022-09-05T15:43:58.403Z,24.21
2022-09-05T15:46:51.416Z,24.19
2022-09-05T15:49:42.965Z,24.14
2022-09-05T15:52:35.275Z,24.15
2022-09-05T15:55:13.854Z,24.13
2022-09-05T15:57:49.473Z,24.09
2022-09-05T16:00:42.252Z,24.06
2022-09-05T16:06:10.725Z,24.03
2022-09-05T16:10:50.406Z,23.97
2022-09-05T16:10:59.282Z,23.96
2022-09-05T16:12:19.316Z,23.81
2022-09-05T16:15:14.793Z,23.92
2022-09-05T16:23:15.605Z,23.87
2022-09-05T16:23:26.206Z,23.78
2022-09-05T16:23:40.679Z,23.72
2022-09-05T16:26:25.003Z,23.71
2022-09-05T16:29:01.151Z,23.60
2022-09-05T16:31:41.014Z,23.62
2022-09-05T16:34:20.791Z,23.59
2022-09-05T16:37:07.814Z,23.54
2022-09-05T16:39:50.960Z,23.50
2022-09-05T16:42:45.983Z,23.46
2022-09-05T16:45:28.355Z,23.42
2022-09-05T16:48:07.669Z,23.41
2022-09-05T16:50:50.086Z,23.37
2022-09-05T16:53:30.989Z,23.30
2022-09-05T16:56:08.851Z,23.27
2022-09-05T16:58:41.954Z,23.01
2022-09-05T17:01:36.036Z,23.10
2022-09-05T17:04:15.849Z,23.02
2022-09-05T17:06:55.353Z,22.97
2022-09-05T17:09:27.514Z,22.94
2022-09-05T17:12:02.298Z,22.95
2022-09-05T17:14:41.810Z,22.93
2022-09-05T17:17:54.600Z,22.81
2022-09-05T17:20:14.611Z,22.73
2022-09-05T17:26:46.912Z,22.72
2022-09-05T17:29:25.035Z,22.59
2022-09-05T17:29:50.490Z,22.65
2022-09-05T17:31:57.756Z,22.46
2022-09-05T17:34:58.699Z,22.40
2022-09-05T17:38:17.449Z,22.26
2022-09-05T17:41:43.902Z,22.36
2022-09-05T17:44:25.987Z,22.25
2022-09-05T17:47:15.256Z,22.23
2022-09-05T17:49:47.016Z,22.18
2022-09-05T17:52:24.227Z,22.15
2022-09-05T17:54:57.507Z,22.06
2022-09-05T17:57:39.374Z,22.10
2022-09-05T18:00:43.156Z,22.13
2022-09-05T18:04:16.588Z,22.04
2022-09-05T18:06:58.973Z,21.87
2022-09-05T18:13:13.054Z,21.88
2022-09-05T18:16:12.510Z,21.84
2022-09-05T18:19:32.621Z,21.87
2022-09-05T18:21:54.110Z,21.72
2022-09-05T18:24:35.067Z,21.78
2022-09-05T18:27:39.376Z,21.75
2022-09-05T18:30:13.267Z,21.69
2022-09-05T18:32:48.034Z,21.65
2022-09-05T18:35:36.271Z,21.70
2022-09-05T18:38:50.524Z,21.46
2022-09-05T18:41:20.211Z,21.54
2022-09-05T18:44:13.579Z,21.44
2022-09-05T18:46:51.267Z,21.42
2022-09-05T18:50:25.752Z,21.43
2022-09-05T18:52:23.327Z,21.48
2022-09-05T18:56:09.988Z,21.46
2022-09-05T18:58:07.383Z,21.46
2022-09-05T19:00:44.661Z,21.33
2022-09-05T19:03:25.052Z,21.22
2022-09-05T19:06:04.266Z,21.22
2022-09-05T19:08:54.452Z,20.98
2022-09-05T19:11:30.897Z,21.07
2022-09-05T19:14:25.789Z,20.86
2022-09-05T19:17:07.554Z,21.05
2022-09-05T19:20:32.246Z,20.77
2022-09-05T19:23:11.179Z,20.95
2022-09-05T19:25:46.275Z,20.71
2022-09-05T19:36:51.434Z,20.74
2022-09-05T19:36:58.388Z,20.65
2022-09-05T19:37:13.760Z,20.63
2022-09-05T19:37:30.541Z,20.57
2022-09-05T19:44:15.833Z,20.74
2022-09-05T19:47:39.123Z,20.61
2022-09-05T19:47:40.838Z,20.60
2022-09-05T19:48:34.466Z,20.69
2022-09-05T19:51:17.073Z,20.63
2022-09-05T19:54:03.742Z,20.67
2022-09-05T19:56:39.133Z,20.63
2022-09-05T19:59:23.154Z,20.64
2022-09-05T20:01:53.458Z,20.63
2022-09-05T20:04:26.573Z,20.53
2022-09-05T20:06:56.767Z,20.38
2022-09-05T20:09:28.773Z,20.28
2022-09-05T20:12:00.138Z,20.31
2022-09-05T20:14:35.732Z,20.26
2022-09-05T20:17:21.159Z,20.32
2022-09-05T20:20:06.919Z,20.40
2022-09-05T20:22:49.468Z,20.42
2022-09-05T20:25:35.214Z,20.31
2022-09-05T20:28:10.337Z,20.30
2022-09-05T20:30:44.782Z,20.11
2022-09-05T20:33:20.577Z,20.16
2022-09-05T20:41:32.181Z,20.25
2022-09-05T20:43:20.810Z,20.28
2022-09-05T20:43:31.716Z,20.09
2022-09-05T20:44:41.268Z,19.77
2022-09-05T20:54:04.319Z,19.96
2022-09-05T20:54:16.977Z,20.06
2022-09-05T20:54:28.652Z,19.71
2022-09-05T20:56:03.627Z,19.69
2022-09-05T20:58:35.034Z,19.65
2022-09-05T21:01:21.120Z,19.54
2022-09-05T21:03:59.009Z,19.54
2022-09-05T21:06:33.711Z,19.53
2022-09-05T21:09:16.010Z,19.58
2022-09-05T21:11:56.385Z,19.47
2022-09-05T21:14:29.428Z,19.36
2022-09-05T21:17:15.738Z,19.46
2022-09-05T21:19:55.382Z,19.36
2022-09-05T21:22:33.322Z,19.31
2022-09-05T21:25:25.139Z,19.42
2022-09-05T21:28:08.804Z,19.38
2022-09-05T21:30:41.435Z,19.24
2022-09-05T21:33:18.979Z,19.27
2022-09-05T21:35:53.324Z,19.20
2022-09-05T21:38:32.527Z,19.29
2022-09-05T21:41:03.689Z,19.17
2022-09-05T21:47:39.157Z,19.26
2022-09-05T21:47:42.995Z,19.24
2022-09-05T21:49:21.218Z,19.18
2022-09-05T21:51:53.311Z,19.05
2022-09-05T21:59:21.408Z,19.05
2022-09-05T21:59:27.857Z,18.87
2022-09-05T22:00:11.543Z,19.09
2022-09-05T22:02:41.762Z,19.01
2022-09-05T22:05:13.471Z,18.93
2022-09-05T22:07:44.801Z,18.95
2022-09-05T22:10:15.490Z,18.98
2022-09-05T22:12:45.962Z,18.78
2022-09-05T22:15:27.471Z,18.75
2022-09-05T22:18:16.537Z,18.80
2022-09-05T22:20:58.585Z,18.64
2022-09-05T22:23:45.429Z,18.66
2022-09-05T22:26:18.357Z,18.53
2022-09-05T22:28:49.829Z,18.39
2022-09-05T22:31:21.789Z,18.41
2022-09-05T22:33:52.023Z,18.39
2022-09-05T22:36:23.103Z,18.43
2022-09-05T22:38:54.999Z,18.39
2022-09-05T22:41:30.185Z,18.35
2022-09-05T22:44:01.003Z,18.16
2022-09-05T22:46:31.969Z,18.15
2022-09-05T22:49:01.856Z,18.16
2022-09-05T22:51:31.829Z,18.00
2022-09-05T22:54:03.060Z,18.05
2022-09-05T22:56:35.421Z,17.90
2022-09-05T22:59:05.978Z,17.83
2022-09-05T23:01:35.899Z,17.83
2022-09-05T23:04:05.948Z,17.76
2022-09-05T23:06:37.041Z,17.76
2022-09-05T23:09:09.703Z,17.66
2022-09-05T23:11:40.657Z,17.52
2022-09-05T23:14:11.051Z,17.58
2022-09-05T23:16:41.088Z,17.40
2022-09-05T23:19:10.903Z,17.23
2022-09-05T23:21:41.027Z,17.29
2022-09-05T23:24:12.384Z,17.35
2022-09-05T23:26:42.601Z,17.18
2022-09-05T23:29:12.565Z,17.27
2022-09-05T23:31:42.439Z,17.22
2022-09-05T23:34:12.303Z,17.20
2022-09-05T23:36:42.420Z,17.25
2022-09-05T23:39:13.799Z,17.03
2022-09-05T23:41:43.850Z,16.98
2022-09-05T23:44:13.734Z,17.16
2022-09-05T23:46:43.824Z,17.11
2022-09-05T23:49:13.775Z,16.96
2022-09-05T23:51:45.886Z,16.99
2022-09-05T23:54:17.116Z,16.94
2022-09-05T23:56:47.139Z,16.90
2022-09-05T23:59:17.180Z,16.95
